Time;durP1;ratioP1;P1;durP2;ratioP2;P2;SDS_P1;SDS_P2;PMS_P1;PMS_P2;Temp;Humidity;BMP_temperature;BMP_pressure;BME280_temperature;BME280_humidity;BME280_pressure;Samples;Min_cycle;Max_cycle;Signal;HPM_P1;HPM_P2
2021/09/14 15:47:50;;;;;;;3.70;2.35;;;;;;;11.89;48.74;99222.06;5044516;28;20091;-77
2021/09/14 15:50:26;;;;;;;1.30;1.30;;;;;;;11.59;49.51;99182.34;5017818;28;20478;-78
2021/09/14 15:53:05;;;;;;;1.33;1.25;;;;;;;11.52;48.99;99170.66;5050575;28;20052;-75
2021/09/14 15:55:36;;;;;;;0.93;0.93;;;;;;;11.69;49.11;99219.97;5033721;28;20048;-75
2021/09/14 15:58:26;;;;;;;0.32;0.32;;;;;;;11.64;49.58;99214.25;4987323;28;20044;-73
2021/09/14 16:01:13;;;;;;;;;;;;;;;11.67;49.56;99220.09;5021016;28;20053;-72
2021/09/14 16:03:39;;;;;;;1.10;0.70;;;;;;;11.58;50.33;99222.50;5034652;28;19947;-72
2021/09/14 16:11:06;;;;;;;3.55;0.77;;;;;;;11.18;50.72;99173.00;5051419;28;20052;-75
2021/09/14 16:13:53;;;;;;;0.50;0.50;;;;;;;11.34;51.46;99228.47;5035801;28;20060;-72
2021/09/14 16:16:20;;;;;;;0.70;0.70;;;;;;;11.17;52.72;99220.09;5019224;28;20045;-72
2021/09/14 16:22:47;;;;;;;1.38;1.33;;;;;;;11.06;52.60;99212.16;4993642;28;20180;-75
2021/09/14 16:25:15;;;;;;;4.22;1.05;;;;;;;10.92;52.47;99195.66;4993448;28;20049;-74
2021/09/14 16:27:42;;;;;;;1.20;1.15;;;;;;;11.01;52.70;99224.69;5014058;28;20045;-74
2021/09/14 16:30:13;;;;;;;1.13;0.93;;;;;;;11.06;52.51;99215.59;5022981;28;20045;-75
2021/09/14 16:32:43;;;;;;;2.08;1.98;;;;;;;10.84;53.07;99197.06;5030915;28;20088;-77
2021/09/14 16:35:24;;;;;;;0.88;0.88;;;;;;;11.05;52.86;99229.59;5013073;28;20092;-74
2021/09/14 16:37:50;;;;;;;0.98;0.98;;;;;;;11.06;52.96;99226.03;5029593;28;20050;-75
2021/09/14 16:40:16;;;;;;;1.58;1.48;;;;;;;11.01;52.81;99230.75;5013222;28;20049;-74
2021/09/14 16:42:43;;;;;;;1.38;1.38;;;;;;;10.87;53.58;99217.75;5025111;28;20099;-74
2021/09/14 16:45:10;;;;;;;1.70;1.60;;;;;;;10.83;53.89;99211.09;4994802;28;20056;-75
2021/09/14 16:48:01;;;;;;;1.77;1.40;;;;;;;10.83;54.11;99224.13;5016432;28;20049;-80
2021/09/14 16:50:41;;;;;;;7.72;3.08;;;;;;;10.78;54.46;99229.66;5045223;28;20045;-77
2021/09/14 16:53:10;;;;;;;2.15;2.05;;;;;;;10.76;54.34;99228.94;5031938;28;20057;-78
2021/09/14 16:55:37;;;;;;;11.75;3.58;;;;;;;10.64;54.95;99214.03;5050640;28;20064;-78
2021/09/14 16:58:15;;;;;;;2.00;1.88;;;;;;;10.63;55.56;99227.22;5065341;28;20064;-79
2021/09/14 17:00:51;;;;;;;2.63;2.45;;;;;;;10.54;55.28;99201.69;5049281;28;20544;-75
2021/09/14 17:03:20;;;;;;;2.92;2.25;;;;;;;10.60;55.05;99225.63;5047754;28;20132;-75
2021/09/14 17:05:45;;;;;;;4.82;2.17;;;;;;;10.53;55.71;99221.75;5046658;28;20137;-77
2021/09/14 17:08:12;;;;;;;1.42;1.42;;;;;;;10.49;55.82;99216.81;5047706;28;20107;-77
2021/09/14 17:10:38;;;;;;;2.45;1.40;;;;;;;10.50;55.91;99213.28;5047936;28;20060;-73
2021/09/14 17:13:07;;;;;;;1.77;1.67;;;;;;;10.43;56.44;99213.69;5047277;28;20883;-72
2021/09/14 17:16:01;;;;;;;0.60;0.60;;;;;;;10.36;56.89;99206.34;5032009;28;20075;-74
2021/09/14 17:19:01;;;;;;;1.00;1.00;;;;;;;10.35;56.99;99218.53;5061068;28;20519;-74
2021/09/14 17:21:32;;;;;;;0.65;0.65;;;;;;;10.32;56.76;99190.03;5024875;28;20148;-72
2021/09/14 17:23:59;;;;;;;0.73;0.73;;;;;;;10.25;57.53;99200.97;5028747;28;20520;-72
2021/09/14 17:26:25;;;;;;;0.80;0.80;;;;;;;10.26;57.73;99216.53;5058296;28;20515;-73
2021/09/14 17:28:52;;;;;;;2.35;1.30;;;;;;;10.22;57.71;99204.63;5052085;28;20164;-73
2021/09/14 17:31:49;;;;;;;0.65;0.65;;;;;;;10.33;57.10;99220.44;5048159;28;20056;-74
2021/09/14 17:34:16;;;;;;;0.88;0.88;;;;;;;10.25;58.13;99212.25;5047853;28;20045;-73
2021/09/14 17:36:43;;;;;;;0.52;0.52;;;;;;;10.23;57.85;99208.06;5047670;28;20052;-73
2021/09/14 17:42:35;;;;;;;0.85;0.85;;;;;;;9.99;58.34;99184.34;5028456;28;20084;-76
2021/09/14 17:45:20;;;;;;;0.50;0.50;;;;;;;10.04;59.13;99197.94;5041990;28;20353;-74
2021/09/14 17:48:04;;;;;;;3.75;1.85;;;;;;;9.80;59.93;99176.00;5013478;28;20199;-74
2021/09/14 17:50:33;;;;;;;0.77;0.77;;;;;;;10.04;59.42;99208.38;5029084;28;20058;-73
2021/09/14 17:53:30;;;;;;;1.05;1.05;;;;;;;9.98;60.30;99210.53;4989508;28;20143;-73
2021/09/14 17:56:00;;;;;;;2.05;1.88;;;;;;;9.84;60.15;99182.72;5026341;28;20045;-73
2021/09/14 17:59:08;;;;;;;16.48;1.35;;;;;;;9.99;60.67;99205.19;5023330;28;20049;-72
2021/09/14 18:01:57;;;;;;;0.85;0.85;;;;;;;10.01;60.35;99205.13;4963808;28;20561;-75
2021/09/14 18:04:27;;;;;;;0.77;0.77;;;;;;;9.83;60.76;99171.44;5001379;28;20041;-77
2021/09/14 18:07:34;;;;;;;1.92;1.88;;;;;;;9.68;60.71;99155.94;5014250;28;20049;-76
2021/09/14 18:10:00;;;;;;;0.55;0.55;;;;;;;9.88;61.32;99199.84;5028690;28;20405;-74
2021/09/14 18:12:28;;;;;;;1.35;1.35;;;;;;;9.84;61.62;99200.94;5034113;28;20098;-74
2021/09/14 18:14:57;;;;;;;0.80;0.80;;;;;;;9.80;62.12;99196.84;5033260;28;20154;-74
2021/09/14 18:17:25;;;;;;;1.00;1.00;;;;;;;9.79;61.45;99196.00;5050562;28;20081;-75
2021/09/14 18:20:04;;;;;;;1.00;1.00;;;;;;;9.78;62.08;99193.53;5049600;28;20059;-74
2021/09/14 18:22:38;;;;;;;1.30;1.30;;;;;;;9.34;62.33;99146.75;5032278;28;20053;-73
2021/09/14 18:25:11;;;;;;;1.38;1.08;;;;;;;9.48;61.12;99148.50;5041132;28;20044;-78
2021/09/14 18:27:38;;;;;;;1.38;1.38;;;;;;;9.53;61.94;99156.84;5051674;28;20059;-74
2021/09/14 18:30:21;;;;;;;2.53;1.60;;;;;;;9.72;61.48;99188.66;5051449;28;20110;-76
2021/09/14 18:33:12;;;;;;;1.88;1.77;;;;;;;9.38;62.07;99143.88;5045014;28;20085;-78
2021/09/14 18:36:10;;;;;;;1.95;1.85;;;;;;;9.45;62.17;99138.28;5018474;28;20140;-76
2021/09/14 18:38:38;;;;;;;1.88;1.77;;;;;;;9.47;62.55;99162.44;5014353;28;20045;-75
2021/09/14 18:41:04;;;;;;;1.13;1.13;;;;;;;9.62;61.70;99195.41;4997431;28;20048;-75
2021/09/14 18:43:31;;;;;;;1.33;1.23;;;;;;;9.68;62.21;99189.81;5031830;28;20132;-76
2021/09/14 18:45:57;;;;;;;1.30;1.30;;;;;;;9.63;62.53;99189.22;5012885;28;20053;-75
2021/09/14 18:48:26;;;;;;;2.92;1.75;;;;;;;9.49;62.34;99177.06;5045776;28;20059;-76
2021/09/14 18:50:56;;;;;;;0.68;0.68;;;;;;;9.45;63.57;99190.38;5033001;28;20048;-74
2021/09/14 18:53:22;;;;;;;0.60;0.60;;;;;;;9.38;63.47;99176.88;5040381;28;20650;-74
2021/09/14 18:55:48;;;;;;;1.00;1.00;;;;;;;9.34;64.13;99184.03;5030812;28;20053;-73
2021/09/14 18:59:06;;;;;;;1.17;1.17;;;;;;;9.30;63.78;99177.34;5049259;28;20080;-75
2021/09/14 19:02:04;;;;;;;0.70;0.70;;;;;;;9.33;63.65;99184.13;5050460;28;20045;-73
2021/09/14 19:04:31;;;;;;;2.10;1.33;;;;;;;9.28;63.80;99184.41;5025233;28;20519;-75
2021/09/14 19:06:57;;;;;;;2.42;2.25;;;;;;;9.29;63.69;99188.69;5028519;28;20046;-73
2021/09/14 19:09:24;;;;;;;39.55;1.15;;;;;;;9.22;63.92;99182.19;5029715;28;20079;-75
2021/09/14 19:12:01;;;;;;;0.82;0.82;;;;;;;8.98;64.54;99144.59;5013537;28;20064;-77
2021/09/14 19:14:39;;;;;;;0.85;0.85;;;;;;;9.16;64.52;99185.13;5030358;28;20142;-75
2021/09/14 19:17:05;;;;;;;1.63;1.52;;;;;;;9.11;64.62;99181.13;5050187;28;20065;-74
2021/09/14 19:19:33;;;;;;;1.83;1.55;;;;;;;9.21;63.98;99177.91;5050790;28;20057;-77
2021/09/14 19:23:03;;;;;;;2.67;1.20;;;;;;;9.24;63.97;99177.72;5023294;28;20136;-76
2021/09/14 19:25:40;;;;;;;1.35;1.35;;;;;;;9.19;64.28;99179.78;4911946;29;20052;-74
2021/09/14 19:28:16;;;;;;;0.77;0.77;;;;;;;9.16;64.38;99182.53;4924797;29;20124;-73
2021/09/14 19:30:42;;;;;;;0.57;0.57;;;;;;;9.23;63.59;99164.78;4922706;29;20082;-72
2021/09/14 19:33:11;;;;;;;1.77;1.67;;;;;;;9.19;64.05;99168.50;4949842;28;20060;-72
2021/09/14 19:35:37;;;;;;;0.80;0.80;;;;;;;9.16;64.34;99176.50;5017487;28;20042;-74
2021/09/14 19:38:31;;;;;;;1.83;1.00;;;;;;;9.10;64.20;99175.09;5010856;28;20061;-73
2021/09/14 19:40:57;;;;;;;2.33;2.13;;;;;;;9.12;64.09;99177.63;5023357;28;20424;-72
2021/09/14 19:43:23;;;;;;;0.77;0.77;;;;;;;9.13;64.36;99182.72;5015769;28;20057;-74
2021/09/14 19:46:34;;;;;;;0.77;0.77;;;;;;;9.07;64.58;99180.47;5030406;28;20057;-74
2021/09/14 19:49:33;;;;;;;1.27;1.17;;;;;;;8.87;64.39;99140.00;5039296;28;20306;-75
2021/09/14 19:52:36;;;;;;;0.95;0.95;;;;;;;9.04;64.33;99167.66;5029231;28;20477;-75
2021/09/14 19:55:31;;;;;;;0.73;0.73;;;;;;;9.05;64.88;99171.09;5030139;28;20116;-73
2021/09/14 19:58:58;;;;;;;3.25;3.05;;;;;;;9.01;64.98;99165.22;5030123;28;20046;-75
2021/09/14 20:02:06;;;;;;;1.48;1.48;;;;;;;9.01;64.94;99180.00;5029681;28;20100;-77
2021/09/14 20:05:04;;;;;;;2.17;0.70;;;;;;;8.87;63.98;99134.81;5040973;28;20183;-76
2021/09/14 20:07:53;;;;;;;0.57;0.57;;;;;;;9.01;64.38;99167.00;5061058;28;20053;-74
2021/09/14 20:10:45;;;;;;;1.15;1.15;;;;;;;9.00;63.93;99154.94;5048626;28;20573;-71
2021/09/14 20:13:35;;;;;;;1.67;1.67;;;;;;;9.09;63.90;99170.00;5049331;28;20532;-73
2021/09/14 20:16:24;;;;;;;4.43;2.15;;;;;;;9.01;64.32;99153.97;5048115;28;20072;-75
2021/09/14 20:19:11;;;;;;;0.90;0.90;;;;;;;9.00;64.25;99163.53;5048443;28;20450;-71
2021/09/14 20:21:56;;;;;;;0.93;0.93;;;;;;;9.03;63.81;99159.94;5049410;28;20048;-70
2021/09/14 20:24:43;;;;;;;0.50;0.50;;;;;;;8.97;64.46;99163.72;5050073;28;20089;-71
2021/09/14 20:27:28;;;;;;;0.98;0.98;;;;;;;8.99;63.58;99156.69;5049445;28;20057;-70
2021/09/14 20:30:15;;;;;;;1.52;1.42;;;;;;;9.10;63.76;99164.69;5047936;28;20049;-72
2021/09/14 20:33:01;;;;;;;1.15;1.15;;;;;;;8.99;63.84;99156.69;5048728;28;20424;-71
2021/09/14 20:35:47;;;;;;;1.08;1.08;;;;;;;9.08;62.83;99155.28;5061815;28;20135;-71
2021/09/14 20:38:33;;;;;;;0.85;0.85;;;;;;;9.12;62.47;99162.84;5041812;28;20515;-72
2021/09/14 20:41:19;;;;;;;0.60;0.60;;;;;;;9.29;61.30;99146.19;5035024;28;20080;-74
2021/09/14 20:44:05;;;;;;;0.60;0.60;;;;;;;9.31;61.20;99152.13;5034758;28;20492;-71
2021/09/14 20:46:52;;;;;;;0.70;0.70;;;;;;;9.27;61.56;99161.06;5048363;28;20508;-70
2021/09/14 20:49:38;;;;;;;0.80;0.80;;;;;;;9.28;60.34;99153.16;5048855;28;20049;-70
2021/09/14 20:52:24;;;;;;;0.57;0.57;;;;;;;9.31;60.11;99152.97;5041571;28;20088;-73
2021/09/14 20:55:10;;;;;;;0.40;0.40;;;;;;;9.25;60.86;99157.72;5014749;28;20060;-73
2021/09/14 20:57:58;;;;;;;0.52;0.52;;;;;;;9.26;60.57;99157.63;5039717;28;20075;-72
2021/09/14 21:00:44;;;;;;;0.60;0.60;;;;;;;9.24;61.20;99151.66;5046419;28;20057;-71
2021/09/14 21:03:30;;;;;;;0.95;0.95;;;;;;;9.19;60.84;99161.53;5047905;28;20647;-72
2021/09/14 21:06:15;;;;;;;0.47;0.47;;;;;;;9.16;61.29;99159.09;5043743;28;20045;-72
2021/09/14 21:09:01;;;;;;;0.30;0.30;;;;;;;9.11;61.42;99150.75;5047958;28;20427;-73
2021/09/14 21:11:47;;;;;;;0.65;0.65;;;;;;;9.18;61.12;99167.66;5048562;28;20064;-72
2021/09/14 21:14:38;;;;;;;0.45;0.45;;;;;;;9.15;60.85;99157.44;5046712;28;20091;-81
2021/09/14 21:17:25;;;;;;;0.50;0.50;;;;;;;9.10;60.95;99167.28;5049777;28;20048;-81
2021/09/14 21:20:11;;;;;;;2.10;1.38;;;;;;;9.03;61.33;99158.16;5035193;28;20878;-79
2021/09/14 21:22:57;;;;;;;0.98;0.98;;;;;;;9.03;61.59;99154.75;5048469;28;20060;-79
2021/09/14 21:25:43;;;;;;;3.90;1.55;;;;;;;8.94;61.45;99158.72;5047303;28;20114;-79
2021/09/14 21:28:29;;;;;;;0.40;0.40;;;;;;;8.95;61.24;99168.22;5032806;28;20389;-81
2021/09/14 21:31:18;;;;;;;0.55;0.55;;;;;;;9.02;60.07;99138.28;5034629;28;20488;-79
2021/09/14 21:34:03;;;;;;;0.52;0.52;;;;;;;9.01;60.34;99154.81;5053449;28;20052;-82
2021/09/14 21:36:49;;;;;;;0.60;0.60;;;;;;;8.93;60.28;99156.22;5053256;28;20049;-78
2021/09/14 21:39:35;;;;;;;0.70;0.70;;;;;;;8.97;59.88;99158.53;5054829;28;20061;-81
2021/09/14 21:42:21;;;;;;;0.68;0.68;;;;;;;8.86;60.61;99161.78;5053112;28;20049;-76
2021/09/14 21:45:08;;;;;;;0.95;0.95;;;;;;;8.86;60.90;99155.75;5052879;28;20044;-77
2021/09/14 21:47:54;;;;;;;0.50;0.50;;;;;;;8.74;60.87;99161.63;5051247;28;20611;-76
2021/09/14 21:50:41;;;;;;;0.40;0.40;;;;;;;8.73;60.92;99160.00;5017281;28;20556;-77
2021/09/14 21:53:27;;;;;;;0.60;0.60;;;;;;;8.81;60.73;99170.78;5032893;28;20053;-76
2021/09/14 21:56:13;;;;;;;0.60;0.60;;;;;;;8.75;60.77;99169.38;5018347;28;20512;-77
2021/09/14 21:58:59;;;;;;;0.40;0.40;;;;;;;8.68;61.18;99170.66;5032603;28;20046;-78
2021/09/14 22:01:45;;;;;;;0.30;0.30;;;;;;;8.67;60.78;99165.56;5032717;28;20044;-78
2021/09/14 22:04:32;;;;;;;4.05;0.93;;;;;;;8.71;60.70;99152.25;5032507;28;20052;-77
2021/09/14 22:07:21;;;;;;;0.40;0.40;;;;;;;8.72;60.75;99168.72;5018184;28;20100;-76
2021/09/14 22:10:08;;;;;;;8.20;1.20;;;;;;;8.73;60.45;99167.78;5032407;28;20502;-80
2021/09/14 22:12:55;;;;;;;1.33;1.25;;;;;;;8.78;60.66;99165.75;5032157;28;20060;-78
2021/09/14 22:15:41;;;;;;;0.40;0.40;;;;;;;8.75;60.65;99168.53;5004297;28;20065;-77
2021/09/14 22:18:28;;;;;;;0.70;0.70;;;;;;;8.72;60.71;99179.13;5032203;28;20671;-78
2021/09/14 22:21:15;;;;;;;0.40;0.40;;;;;;;8.73;60.62;99186.00;5032449;28;20060;-76
2021/09/14 22:24:01;;;;;;;0.50;0.50;;;;;;;8.85;59.63;99180.09;5037168;28;20083;-77
2021/09/14 22:26:47;;;;;;;0.50;0.50;;;;;;;8.84;59.63;99171.44;5036097;28;20080;-77
2021/09/14 22:29:33;;;;;;;0.70;0.70;;;;;;;8.83;60.17;99180.16;5052137;28;20053;-77
2021/09/14 22:32:18;;;;;;;0.30;0.30;;;;;;;8.76;59.79;99172.81;5052066;28;20554;-77
2021/09/14 22:35:04;;;;;;;0.38;0.38;;;;;;;8.74;59.96;99182.47;5051939;28;20136;-79
2021/09/14 22:37:50;;;;;;;0.85;0.85;;;;;;;8.72;60.42;99179.97;5051646;28;20136;-79
2021/09/14 22:40:36;;;;;;;0.50;0.50;;;;;;;8.61;61.37;99182.34;5051976;28;20041;-79
2021/09/14 22:43:22;;;;;;;0.55;0.55;;;;;;;8.64;60.63;99181.31;5050618;28;20076;-77
2021/09/14 22:46:08;;;;;;;0.40;0.40;;;;;;;8.68;60.64;99188.03;5051666;28;20049;-78
2021/09/14 22:48:54;;;;;;;0.40;0.40;;;;;;;8.61;61.06;99171.94;5051613;28;20059;-78
2021/09/14 22:51:40;;;;;;;0.60;0.60;;;;;;;8.75;60.64;99178.94;5051734;28;20160;-78
2021/09/14 22:54:25;;;;;;;0.43;0.43;;;;;;;8.74;60.09;99182.47;5053860;28;20499;-78
2021/09/14 22:57:12;;;;;;;0.30;0.30;;;;;;;8.77;60.07;99172.72;5036929;28;20087;-77
2021/09/14 22:59:57;;;;;;;0.30;0.30;;;;;;;8.77;60.41;99182.28;5051467;28;20049;-77
2021/09/14 23:02:43;;;;;;;0.57;0.57;;;;;;;8.83;59.59;99187.97;5051551;28;20064;-78
2021/09/14 23:05:29;;;;;;;0.45;0.45;;;;;;;8.92;59.47;99181.41;5051561;28;20056;-76
2021/09/14 23:08:15;;;;;;;0.43;0.43;;;;;;;8.88;59.75;99185.09;5036300;28;20052;-76
2021/09/14 23:11:01;;;;;;;0.60;0.60;;;;;;;8.87;59.70;99184.25;5051117;28;20099;-78
2021/09/14 23:13:47;;;;;;;0.88;0.88;;;;;;;8.82;60.29;99195.88;5051271;28;20057;-76
2021/09/14 23:16:32;;;;;;;0.30;0.30;;;;;;;8.85;59.70;99180.09;5051207;28;20091;-78
2021/09/14 23:19:18;;;;;;;0.68;0.68;;;;;;;8.80;60.34;99185.53;5050320;28;20044;-80
2021/09/14 23:22:04;;;;;;;1.40;1.40;;;;;;;8.70;60.01;99184.41;5050861;28;20083;-78
2021/09/14 23:24:50;;;;;;;0.40;0.40;;;;;;;8.78;60.35;99199.56;5036192;28;20465;-79
2021/09/14 23:27:36;;;;;;;7.57;1.10;;;;;;;8.75;60.60;99192.78;5050962;28;20059;-77
2021/09/14 23:30:21;;;;;;;0.30;0.30;;;;;;;8.75;60.27;99189.34;5051370;28;20501;-79
2021/09/14 23:33:07;;;;;;;0.93;0.75;;;;;;;8.79;60.57;99196.06;5036295;28;20506;-79
2021/09/14 23:35:53;;;;;;;0.63;0.63;;;;;;;8.84;60.39;99194.00;5042486;28;20047;-79
2021/09/14 23:38:39;;;;;;;0.40;0.40;;;;;;;8.79;61.40;99196.06;5065135;28;20041;-79
2021/09/14 23:41:25;;;;;;;0.57;0.57;;;;;;;8.86;60.62;99202.59;5067421;28;20488;-78
2021/09/14 23:44:10;;;;;;;0.50;0.50;;;;;;;8.86;60.78;99202.59;5052684;28;20087;-80
2021/09/14 23:46:56;;;;;;;0.50;0.50;;;;;;;8.87;60.48;99189.47;5036214;28;20143;-78
2021/09/14 23:49:42;;;;;;;0.45;0.45;;;;;;;8.97;59.93;99194.97;5051588;28;20067;-77
2021/09/14 23:52:28;;;;;;;0.50;0.50;;;;;;;8.97;60.33;99194.97;5051596;28;20118;-78
2021/09/14 23:55:13;;;;;;;1.05;1.05;;;;;;;9.02;60.40;99200.75;5036090;28;20048;-79
2021/09/14 23:58:00;;;;;;;0.50;0.50;;;;;;;9.10;60.14;99201.13;5050521;28;20132;-80
